createdAt,value
2023-01-22T00:01:08.465Z,101349.36
2023-01-22T00:03:36.104Z,101355.13
2023-01-22T00:06:02.958Z,101355.89
2023-01-22T00:08:29.810Z,101355.29
2023-01-22T00:10:56.592Z,101361.17
2023-01-22T00:13:23.893Z,101365.27
2023-01-22T00:15:50.994Z,101362.34
2023-01-22T00:18:18.180Z,101369.14
2023-01-22T00:20:48.468Z,101373.09
2023-01-22T00:23:15.133Z,101371.70
2023-01-22T00:25:41.864Z,101381.09
2023-01-22T00:28:08.769Z,101385.20
2023-01-22T00:30:35.485Z,101388.13
2023-01-22T00:33:02.302Z,101390.20
2023-01-22T00:35:28.891Z,101386.08
2023-01-22T00:37:58.686Z,101386.41
2023-01-22T00:40:25.187Z,101388.68
2023-01-22T00:42:52.519Z,101390.05
2023-01-22T00:45:21.883Z,101391.95
2023-01-22T00:47:48.587Z,101396.77
2023-01-22T00:50:16.037Z,101394.98
2023-01-22T00:52:42.773Z,101398.02
2023-01-22T00:55:09.370Z,101403.37
2023-01-22T00:57:36.100Z,101400.95
2023-01-22T01:00:03.366Z,101402.73
2023-01-22T01:02:30.078Z,101404.41
2023-01-22T01:04:57.014Z,101407.96
2023-01-22T01:07:23.757Z,101405.05
2023-01-22T01:09:54.081Z,101406.21
2023-01-22T01:12:20.839Z,101412.14
2023-01-22T01:14:47.421Z,101412.36
2023-01-22T01:17:13.958Z,101411.33
2023-01-22T01:19:40.548Z,101413.62
2023-01-22T01:22:07.576Z,101420.67
2023-01-22T01:24:35.956Z,101422.91
2023-01-22T01:27:02.950Z,101424.48
2023-01-22T01:29:29.542Z,101423.15
2023-01-22T01:31:57.337Z,101420.27
2023-01-22T01:34:24.437Z,101423.46
2023-01-22T01:36:51.096Z,101425.83
2023-01-22T01:39:18.444Z,101423.58
2023-01-22T01:41:46.637Z,101424.25
2023-01-22T01:44:15.523Z,101419.89
2023-01-22T01:46:45.728Z,101424.41
2023-01-22T01:49:31.746Z,101427.77
2023-01-22T01:52:00.617Z,101434.09
2023-01-22T01:54:27.433Z,101441.05
2023-01-22T01:56:56.975Z,101440.90
2023-01-22T01:59:23.859Z,101441.90
2023-01-22T02:01:53.140Z,101444.55
2023-01-22T02:04:20.043Z,101446.05
2023-01-22T02:06:47.059Z,101447.80
2023-01-22T02:09:13.969Z,101445.21
2023-01-22T02:11:40.664Z,101450.43
2023-01-22T02:14:17.611Z,101455.52
2023-01-22T02:16:44.319Z,101456.98
2023-01-22T02:19:11.015Z,101454.01
2023-01-22T02:21:40.125Z,101455.61
2023-01-22T02:24:11.743Z,101454.46
2023-01-22T02:26:39.353Z,101453.27
2023-01-22T02:29:07.451Z,101452.25
2023-01-22T02:31:37.309Z,101450.91
2023-01-22T02:34:05.253Z,101450.30
2023-01-22T02:36:33.493Z,101446.81
2023-01-22T02:39:00.214Z,101447.60
2023-01-22T02:41:26.920Z,101449.24
2023-01-22T02:43:53.595Z,101443.61
2023-01-22T02:46:21.734Z,101443.16
2023-01-22T02:48:49.734Z,101447.42
2023-01-22T02:51:16.581Z,101444.95
2023-01-22T02:53:44.495Z,101443.61
2023-01-22T02:56:11.483Z,101446.77
2023-01-22T02:58:39.157Z,101449.55
2023-01-22T03:01:20.983Z,101450.91
2023-01-22T03:03:55.662Z,101447.61
2023-01-22T03:06:25.591Z,101446.27
2023-01-22T03:08:56.878Z,101453.10
2023-01-22T03:11:24.497Z,101456.11
2023-01-22T03:14:11.215Z,101456.30
2023-01-22T03:16:56.989Z,101463.58
2023-01-22T03:19:42.782Z,101470.97
2023-01-22T03:22:15.072Z,101471.45
2023-01-22T03:24:43.142Z,101471.45
2023-01-22T03:27:10.340Z,101472.70
2023-01-22T03:29:37.725Z,101478.28
2023-01-22T03:32:06.283Z,101478.04
2023-01-22T03:34:35.182Z,101482.34
2023-01-22T03:37:04.279Z,101487.40
2023-01-22T03:39:34.614Z,101483.90
2023-01-22T03:42:02.377Z,101482.88
2023-01-22T03:44:29.607Z,101482.25
2023-01-22T03:46:56.493Z,101487.10
2023-01-22T03:49:23.687Z,101490.80
2023-01-22T03:51:52.207Z,101493.02
2023-01-22T03:54:21.102Z,101489.15
2023-01-22T03:56:48.129Z,101495.67
2023-01-22T03:59:20.487Z,101497.23
2023-01-22T04:01:47.256Z,101499.98
2023-01-22T04:04:13.937Z,101503.95
2023-01-22T04:06:42.699Z,101500.09
2023-01-22T04:09:09.633Z,101503.27
2023-01-22T04:11:45.681Z,101504.31
2023-01-22T04:14:14.278Z,101504.60
2023-01-22T04:16:47.258Z,101510.25
2023-01-22T04:19:34.745Z,101511.35
2023-01-22T04:22:20.053Z,101516.78
2023-01-22T04:24:48.761Z,101520.00
2023-01-22T04:27:15.812Z,101525.94
2023-01-22T04:29:42.445Z,101527.39
2023-01-22T04:32:08.994Z,101530.30
2023-01-22T04:35:03.459Z,101535.08
2023-01-22T04:37:37.567Z,101544.88
2023-01-22T04:40:05.136Z,101551.84
2023-01-22T04:42:34.236Z,101553.98
2023-01-22T04:45:00.975Z,101553.95
2023-01-22T04:47:29.741Z,101563.70
2023-01-22T04:49:56.309Z,101564.31
2023-01-22T04:52:22.946Z,101567.66
2023-01-22T04:54:51.508Z,101575.55
2023-01-22T04:57:18.160Z,101581.86
2023-01-22T04:59:44.987Z,101588.14
2023-01-22T05:02:11.871Z,101593.34
2023-01-22T05:04:38.629Z,101594.19
2023-01-22T05:07:06.019Z,101596.19
2023-01-22T05:09:32.770Z,101600.24
2023-01-22T05:12:00.423Z,101600.77
2023-01-22T05:14:31.170Z,101601.34
2023-01-22T05:16:58.507Z,101598.47
2023-01-22T05:19:25.214Z,101600.40
2023-01-22T05:21:53.286Z,101595.23
2023-01-22T05:24:20.018Z,101601.16
2023-01-22T05:26:46.614Z,101600.53
2023-01-22T05:29:18.257Z,101604.33
2023-01-22T05:31:57.603Z,101606.91
2023-01-22T05:34:29.560Z,101613.00
2023-01-22T05:36:56.635Z,101619.77
2023-01-22T05:39:25.429Z,101621.47
2023-01-22T05:41:53.990Z,101622.98
2023-01-22T05:44:20.685Z,101622.26
2023-01-22T05:46:52.071Z,101631.45
2023-01-22T05:49:26.254Z,101636.79
2023-01-22T05:51:56.704Z,101639.45
2023-01-22T05:54:23.444Z,101637.21
2023-01-22T05:56:50.627Z,101640.09
2023-01-22T05:59:18.057Z,101642.02
2023-01-22T06:01:51.412Z,101650.66
2023-01-22T06:04:18.328Z,101653.14
2023-01-22T06:06:46.494Z,101658.73
2023-01-22T06:09:13.613Z,101655.55
2023-01-22T07:20:33.545Z,101710.92
2023-01-22T07:23:00.448Z,101718.30
2023-01-22T07:25:27.462Z,101715.64
2023-01-22T07:28:01.241Z,101719.45
2023-01-22T07:30:28.568Z,101720.56
2023-01-22T07:32:59.769Z,101719.43
2023-01-22T07:35:27.825Z,101724.43
2023-01-22T07:37:56.279Z,101725.60
2023-01-22T07:40:23.947Z,101723.58
2023-01-22T07:42:51.259Z,101719.02
2023-01-22T07:45:19.104Z,101721.93
2023-01-22T07:47:53.951Z,101730.02
2023-01-22T07:50:21.617Z,101725.50
2023-01-22T07:52:48.172Z,101729.23
2023-01-22T07:55:14.715Z,101735.48
2023-01-22T07:57:41.406Z,101744.17
2023-01-22T08:00:12.277Z,101748.91
2023-01-22T08:02:43.661Z,101755.52
2023-01-22T08:05:10.618Z,101752.39
2023-01-22T08:07:37.785Z,101752.78
2023-01-22T08:10:05.232Z,101754.20
2023-01-22T08:12:31.965Z,101758.26
2023-01-22T08:14:58.574Z,101750.65
2023-01-22T08:17:25.243Z,101752.28
2023-01-22T08:19:51.891Z,101754.58
2023-01-22T08:22:18.565Z,101758.35
2023-01-22T08:24:45.181Z,101759.23
2023-01-22T08:27:11.795Z,101756.78
2023-01-22T08:29:39.837Z,101759.98
2023-01-22T08:32:06.921Z,101763.81
2023-01-22T08:34:33.792Z,101763.71
2023-01-22T08:37:00.318Z,101769.13
2023-01-22T08:39:27.699Z,101765.69
2023-01-22T08:41:58.210Z,101764.31
2023-01-22T08:44:25.124Z,101766.05
2023-01-22T08:46:51.886Z,101766.75
2023-01-22T08:49:20.727Z,101767.45
2023-01-22T08:51:48.033Z,101765.79
2023-01-22T08:54:19.214Z,101766.89
2023-01-22T08:56:47.417Z,101764.55
2023-01-22T08:59:14.538Z,101763.44
2023-01-22T09:01:41.315Z,101759.15
2023-01-22T09:04:08.795Z,101757.16
2023-01-22T09:06:36.458Z,101755.73
2023-01-22T09:09:03.291Z,101754.48
2023-01-22T09:11:30.840Z,101760.88
2023-01-22T09:13:58.234Z,101759.17
2023-01-22T09:16:25.759Z,101764.09
2023-01-22T09:18:52.993Z,101763.17
2023-01-22T09:21:19.720Z,101767.61
2023-01-22T09:23:46.302Z,101763.80
2023-01-22T09:26:13.189Z,101764.89
2023-01-22T09:28:40.068Z,101764.75
2023-01-22T09:31:06.805Z,101766.95
2023-01-22T09:33:33.749Z,101765.06
2023-01-22T09:36:10.745Z,101765.89
2023-01-22T09:38:37.800Z,101772.80
2023-01-22T09:41:18.958Z,101773.98
2023-01-22T09:43:54.699Z,101777.09
2023-01-22T09:46:28.293Z,101778.23
2023-01-22T09:49:09.990Z,101773.85
2023-01-22T09:51:37.090Z,101774.02
2023-01-22T09:54:04.121Z,101773.31
2023-01-22T09:56:45.281Z,101774.23
2023-01-22T09:59:32.070Z,101775.34
2023-01-22T10:02:03.789Z,101778.03
2023-01-22T10:04:38.972Z,101781.92
2023-01-22T10:07:08.452Z,101778.80
2023-01-22T10:09:39.323Z,101778.91
2023-01-22T10:12:12.239Z,101781.02
2023-01-22T10:14:39.206Z,101780.09
2023-01-22T10:17:15.437Z,101777.70
2023-01-22T10:19:43.754Z,101779.27
2023-01-22T10:22:18.107Z,101783.52
2023-01-22T10:24:44.633Z,101777.95
2023-01-22T10:27:13.223Z,101782.48
2023-01-22T10:29:40.026Z,101783.91
2023-01-22T10:32:24.750Z,101780.09
2023-01-22T10:35:10.317Z,101777.29
2023-01-22T10:37:45.138Z,101779.58
2023-01-22T10:40:22.727Z,101781.75
2023-01-22T10:43:00.475Z,101779.64
2023-01-22T10:45:27.373Z,101780.73
2023-01-22T10:48:12.635Z,101779.40
2023-01-22T10:50:39.657Z,101776.65
2023-01-22T10:53:20.445Z,101773.55
2023-01-22T10:55:55.086Z,101771.04
2023-01-22T10:58:23.805Z,101769.80
2023-01-22T11:00:59.275Z,101766.94
2023-01-22T11:03:32.207Z,101768.66
2023-01-22T11:06:30.293Z,101771.64
2023-01-22T11:09:30.805Z,101773.80
2023-01-22T11:12:02.870Z,101777.89
2023-01-22T11:14:34.030Z,101777.61
2023-01-22T11:17:15.180Z,101779.02
2023-01-22T11:19:46.291Z,101778.80
2023-01-22T11:22:32.815Z,101778.42
2023-01-22T11:24:59.884Z,101779.63
2023-01-22T11:27:31.031Z,101771.14
2023-01-22T11:30:07.019Z,101773.52
2023-01-22T11:32:38.332Z,101770.06
2023-01-22T11:35:05.075Z,101772.36
2023-01-22T11:38:11.047Z,101771.07
2023-01-22T11:40:59.744Z,101770.77
2023-01-22T11:43:45.583Z,101766.16
2023-01-22T11:46:21.104Z,101770.20
2023-01-22T11:48:53.782Z,101769.82
2023-01-22T11:51:37.868Z,101771.06
2023-01-22T11:54:21.838Z,101773.89
2023-01-22T11:56:59.555Z,101773.92
2023-01-22T11:59:46.979Z,101773.45
2023-01-22T12:02:38.559Z,101775.58
2023-01-22T12:05:25.045Z,101777.73
2023-01-22T12:08:17.316Z,101773.34
2023-01-22T12:10:52.940Z,101775.48
2023-01-22T12:13:46.738Z,101775.90
2023-01-22T12:16:26.160Z,101779.71
2023-01-22T12:18:52.637Z,101785.43
2023-01-22T12:21:22.279Z,101787.24
2023-01-22T12:23:59.059Z,101790.08
2023-01-22T12:26:29.220Z,101793.48
2023-01-22T12:29:01.982Z,101797.48
2023-01-22T12:31:34.003Z,101794.81
2023-01-22T12:34:02.649Z,101798.09
2023-01-22T12:36:32.430Z,101796.70
2023-01-22T12:39:00.718Z,101799.63
2023-01-22T12:41:32.654Z,101798.67
2023-01-22T12:44:06.017Z,101796.69
2023-01-22T12:46:38.808Z,101800.23
2023-01-22T12:49:07.962Z,101800.09
2023-01-22T12:51:39.575Z,101798.06
2023-01-22T12:54:29.978Z,101796.38
2023-01-22T12:57:20.823Z,101803.28
2023-01-22T12:59:52.235Z,101804.96
2023-01-22T13:02:25.791Z,101809.84
2023-01-22T13:04:53.203Z,101806.85
2023-01-22T13:07:21.124Z,101809.29
2023-01-22T13:09:48.525Z,101811.20
2023-01-22T13:12:26.387Z,101809.70
2023-01-22T13:14:53.296Z,101812.20
2023-01-22T13:17:24.512Z,101808.77
2023-01-22T13:19:51.336Z,101809.14
2023-01-22T13:22:23.303Z,101810.34
2023-01-22T13:24:53.123Z,101805.00
2023-01-22T13:27:25.726Z,101809.59
2023-01-22T13:29:52.393Z,101811.04
2023-01-22T13:32:21.432Z,101807.41
2023-01-22T13:34:48.578Z,101808.13
2023-01-22T13:37:26.077Z,101810.63
2023-01-22T13:39:54.224Z,101812.81
2023-01-22T13:42:23.921Z,101811.11
2023-01-22T13:44:51.010Z,101812.61
2023-01-22T13:47:31.467Z,101814.98
2023-01-22T13:49:58.203Z,101816.89
2023-01-22T13:52:24.956Z,101819.19
2023-01-22T13:55:04.819Z,101823.50
2023-01-22T13:57:32.618Z,101824.05
2023-01-22T14:00:00.596Z,101828.77
2023-01-22T14:02:34.044Z,101828.95
2023-01-22T14:05:00.771Z,101827.85
2023-01-22T14:07:32.304Z,101829.55
2023-01-22T14:10:21.436Z,101832.11
2023-01-22T14:13:16.189Z,101832.78
2023-01-22T14:15:53.826Z,101833.60
2023-01-22T14:18:21.138Z,101831.04
2023-01-22T14:20:48.089Z,101832.83
2023-01-22T14:23:15.137Z,101835.09
2023-01-22T14:25:46.813Z,101832.50
2023-01-22T14:28:14.067Z,101831.12
2023-01-22T14:30:41.112Z,101833.11
2023-01-22T14:33:24.204Z,101838.37
2023-01-22T14:35:51.939Z,101839.73
2023-01-22T14:38:18.701Z,101841.65
2023-01-22T14:40:45.442Z,101838.98
2023-01-22T14:43:12.333Z,101844.13
2023-01-22T14:45:42.731Z,101838.34
2023-01-22T14:48:16.303Z,101839.55
2023-01-22T14:50:43.393Z,101839.45
2023-01-22T14:53:10.623Z,101838.30
2023-01-22T14:55:37.453Z,101839.36
2023-01-22T14:58:05.539Z,101839.20
2023-01-22T15:00:32.694Z,101839.34
2023-01-22T15:02:59.429Z,101839.35
2023-01-22T15:05:26.403Z,101843.61
2023-01-22T15:07:53.063Z,101846.51
2023-01-22T15:10:20.107Z,101846.85
2023-01-22T15:12:48.749Z,101852.20
2023-01-22T15:15:16.052Z,101852.63
2023-01-22T15:17:42.694Z,101849.90
2023-01-22T15:20:10.279Z,101848.98
2023-01-22T15:22:37.286Z,101852.75
2023-01-22T15:25:05.121Z,101855.89
2023-01-22T15:27:32.138Z,101855.74
2023-01-22T15:29:59.298Z,101858.41
2023-01-22T15:32:26.128Z,101856.11
2023-01-22T15:34:52.798Z,101858.36
2023-01-22T15:37:19.360Z,101862.77
2023-01-22T15:39:50.350Z,101864.58
2023-01-22T15:42:17.397Z,101863.66
2023-01-22T15:44:44.440Z,101864.45
2023-01-22T15:47:14.011Z,101866.77
2023-01-22T15:49:40.791Z,101866.45
2023-01-22T15:52:07.634Z,101867.61
2023-01-22T15:54:34.472Z,101869.23
2023-01-22T15:57:01.650Z,101866.59
2023-01-22T15:59:28.635Z,101869.00
2023-01-22T16:01:55.518Z,101869.35
2023-01-22T16:04:22.869Z,101869.54
2023-01-22T16:06:51.459Z,101872.22
2023-01-22T16:09:18.397Z,101876.00
2023-01-22T16:11:45.412Z,101877.91
2023-01-22T16:14:12.498Z,101879.42
2023-01-22T16:16:39.771Z,101876.55
2023-01-22T16:19:07.306Z,101883.59
2023-01-22T16:21:34.464Z,101882.83
2023-01-22T16:24:01.308Z,101882.30
2023-01-22T16:26:29.910Z,101884.30
2023-01-22T16:28:57.553Z,101885.73
2023-01-22T16:31:27.254Z,101887.70
2023-01-22T16:33:55.695Z,101887.88
2023-01-22T16:36:24.109Z,101890.98
2023-01-22T16:38:51.412Z,101889.02
2023-01-22T16:41:24.512Z,101895.80
2023-01-22T16:43:57.212Z,101895.98
2023-01-22T16:46:25.540Z,101902.04
2023-01-22T16:49:03.108Z,101903.55
2023-01-22T16:51:34.458Z,101908.52
2023-01-22T16:54:01.301Z,101908.91
2023-01-22T16:56:28.366Z,101917.16
2023-01-22T16:58:55.384Z,101917.65
2023-01-22T17:01:22.124Z,101918.74
2023-01-22T17:03:49.233Z,101917.10
2023-01-22T17:06:28.244Z,101918.10
2023-01-22T17:08:55.077Z,101917.70
2023-01-22T17:11:22.298Z,101919.95
2023-01-22T17:13:49.342Z,101918.31
2023-01-22T17:16:16.318Z,101921.02
2023-01-22T17:18:43.901Z,101926.22
2023-01-22T17:21:16.325Z,101921.36
2023-01-22T17:23:43.468Z,101921.03
2023-01-22T17:26:11.743Z,101921.42
2023-01-22T17:28:39.305Z,101917.42
2023-01-22T17:31:07.503Z,101917.02
2023-01-22T17:33:35.139Z,101919.69
2023-01-22T17:36:03.418Z,101918.84
2023-01-22T17:38:32.305Z,101920.10
2023-01-22T17:41:10.259Z,101922.72
2023-01-22T17:43:38.181Z,101928.86
2023-01-22T17:46:11.406Z,101930.30
2023-01-22T17:48:40.377Z,101934.24
2023-01-22T17:51:07.837Z,101930.09
2023-01-22T17:53:37.663Z,101928.08
2023-01-22T17:56:08.143Z,101934.88
2023-01-22T17:58:34.878Z,101936.55
2023-01-22T18:01:07.965Z,101940.86
2023-01-22T18:03:35.443Z,101941.36
2023-01-22T20:21:33.154Z,101983.77
2023-01-22T20:24:00.201Z,101985.30
2023-01-22T20:26:27.153Z,101987.67
2023-01-22T20:28:54.161Z,101990.85
2023-01-22T20:31:23.473Z,101988.67
2023-01-22T20:33:54.859Z,101987.74
2023-01-22T20:36:22.120Z,101985.77
2023-01-22T20:38:52.568Z,101987.10
2023-01-22T20:41:20.100Z,101990.95
2023-01-22T20:43:47.229Z,101988.60
2023-01-22T20:46:18.480Z,101986.92
2023-01-22T20:48:46.138Z,101991.82
2023-01-22T20:51:15.845Z,101991.73
2023-01-22T20:53:43.721Z,101990.60
2023-01-22T20:56:13.452Z,101990.45
2023-01-22T20:58:40.326Z,101989.05
2023-01-22T21:01:19.329Z,101988.50
2023-01-22T21:03:47.481Z,101992.67
2023-01-22T21:06:16.664Z,101996.25
2023-01-22T21:08:43.937Z,102001.13
2023-01-22T21:11:12.406Z,102001.52
2023-01-22T21:13:39.655Z,101997.80
2023-01-22T21:16:18.692Z,101998.02
2023-01-22T21:18:46.419Z,101999.28
2023-01-22T21:21:17.905Z,101999.02
2023-01-22T21:23:46.189Z,101996.86
2023-01-22T21:26:15.444Z,101999.55
2023-01-22T21:28:42.519Z,101999.89
2023-01-22T21:31:11.337Z,101999.47
2023-01-22T21:33:38.678Z,101995.58
2023-01-22T21:36:06.700Z,101993.73
2023-01-22T21:38:33.977Z,101994.98
2023-01-22T21:41:05.209Z,101992.16
2023-01-22T21:43:50.763Z,101984.30
2023-01-22T21:46:25.321Z,101986.55
2023-01-22T21:49:01.174Z,101986.89
2023-01-22T21:51:29.251Z,101985.97
2023-01-22T21:53:56.941Z,101989.96
2023-01-22T21:56:24.065Z,101985.09
2023-01-22T21:58:50.891Z,101987.98
2023-01-22T22:01:19.305Z,101988.66
2023-01-22T22:03:46.123Z,101988.23
2023-01-22T22:06:13.520Z,101985.75
2023-01-22T22:08:43.316Z,101984.84
2023-01-22T22:11:10.924Z,101985.96
2023-01-22T22:13:38.105Z,101979.91
2023-01-22T22:16:06.991Z,101982.83
2023-01-22T22:18:34.047Z,101979.02
2023-01-22T22:21:03.601Z,101980.64
2023-01-22T22:23:30.890Z,101979.78
2023-01-22T22:25:57.924Z,101979.76
2023-01-22T22:28:25.075Z,101980.29
2023-01-22T22:30:51.964Z,101978.56
2023-01-22T22:33:19.076Z,101980.83
2023-01-22T22:35:46.614Z,101981.12
2023-01-22T22:38:14.193Z,101981.79
2023-01-22T22:40:41.159Z,101983.55
2023-01-22T22:43:09.012Z,101985.70
2023-01-22T22:45:37.744Z,101990.20
2023-01-22T22:48:05.482Z,101984.60
2023-01-22T22:50:32.425Z,101984.65
2023-01-22T22:52:59.263Z,101988.45
2023-01-22T22:55:28.695Z,101991.69
2023-01-22T22:57:55.728Z,101990.14
2023-01-22T23:00:23.268Z,101991.37
2023-01-22T23:02:50.727Z,101990.88
2023-01-22T23:05:17.575Z,101995.33
2023-01-22T23:07:44.347Z,101995.89
2023-01-22T23:10:28.862Z,101999.50
2023-01-22T23:12:57.655Z,101997.99
2023-01-22T23:15:25.938Z,102000.11
2023-01-22T23:17:54.189Z,101993.95
2023-01-22T23:20:21.517Z,101994.27
2023-01-22T23:22:49.760Z,101997.17
2023-01-22T23:25:17.131Z,101996.01
2023-01-22T23:27:44.263Z,101995.66
2023-01-22T23:30:12.415Z,101993.34
2023-01-22T23:32:39.777Z,101988.38
2023-01-22T23:35:06.975Z,101988.58
2023-01-22T23:37:33.843Z,101988.64
2023-01-22T23:40:00.709Z,101992.79
2023-01-22T23:42:27.651Z,101993.48
2023-01-22T23:44:54.493Z,101997.73
2023-01-22T23:47:24.614Z,101997.95
2023-01-22T23:49:51.937Z,101999.53
2023-01-22T23:52:18.787Z,102002.19
2023-01-22T23:54:45.650Z,101995.30
2023-01-22T23:57:12.461Z,101991.67
2023-01-22T23:59:39.338Z,101995.23
